Time;durP1;ratioP1;P1;durP2;ratioP2;P2;SDS_P1;SDS_P2;PMS_P1;PMS_P2;Temp;Humidity;BMP_temperature;BMP_pressure;BME280_temperature;BME280_humidity;BME280_pressure;Samples;Min_cycle;Max_cycle;Signal;HPM_P1;HPM_P2
2021/06/17 00:01:05;;;;;;;14.30;13.10;;;;;;;;;;5061164;28;20170;-58
2021/06/17 00:03:31;;;;;;;14.90;13.90;;;;;;;;;;5062081;28;20222;-57
2021/06/17 00:05:56;;;;;;;15.27;14.27;;;;;;;;;;5042311;28;20534;-58
2021/06/17 00:08:21;;;;;;;14.80;13.40;;;;;;;;;;5039452;28;20650;-58
2021/06/17 00:10:48;;;;;;;14.93;13.93;;;;;;;;;;5041218;28;20173;-58
2021/06/17 00:13:16;;;;;;;14.33;13.27;;;;;;;;;;5043008;28;20241;-58
2021/06/17 00:15:42;;;;;;;15.33;14.23;;;;;;;;;;5048078;28;21132;-57
2021/06/17 00:18:08;;;;;;;15.30;14.30;;;;;;;;;;5050159;28;21170;-57
2021/06/17 00:20:33;;;;;;;14.77;13.73;;;;;;;;;;5061515;28;20588;-57
2021/06/17 00:22:58;;;;;;;15.50;14.30;;;;;;;;;;5049469;28;20603;-57
2021/06/17 00:25:24;;;;;;;15.33;14.10;;;;;;;;;;5043888;28;20229;-57
2021/06/17 00:27:49;;;;;;;14.50;13.40;;;;;;;;;;5063256;28;20582;-57
2021/06/17 00:30:15;;;;;;;14.27;13.23;;;;;;;;;;5044233;28;20202;-57
2021/06/17 00:32:40;;;;;;;16.80;15.70;;;;;;;;;;5042579;28;20174;-58
2021/06/17 00:35:06;;;;;;;16.20;15.00;;;;;;;;;;5040584;28;20184;-59
2021/06/17 00:37:31;;;;;;;14.97;13.77;;;;;;;;;;5038407;28;20257;-57
2021/06/17 00:39:59;;;;;;;14.90;13.90;;;;;;;;;;5040157;28;20603;-58
2021/06/17 00:42:24;;;;;;;14.73;13.53;;;;;;;;;;5042927;28;20697;-57
2021/06/17 00:44:49;;;;;;;14.85;13.65;;;;;;;;;;5044090;28;21144;-58
2021/06/17 00:47:14;;;;;;;15.30;14.10;;;;;;;;;;5040704;28;20205;-58
2021/06/17 00:49:40;;;;;;;14.27;13.37;;;;;;;;;;5039099;28;20204;-58
2021/06/17 00:52:06;;;;;;;14.57;13.63;;;;;;;;;;5050973;28;20688;-58
2021/06/17 00:54:32;;;;;;;15.03;14.03;;;;;;;;;;5060078;28;20228;-58
2021/06/17 00:57:05;;;;;;;15.20;14.10;;;;;;;;;;5055023;28;20642;-58
2021/06/17 00:59:31;;;;;;;16.80;15.47;;;;;;;;;;5058820;28;20849;-58
2021/06/17 01:01:56;;;;;;;14.97;14.00;;;;;;;;;;5056491;28;20616;-58
2021/06/17 01:04:22;;;;;;;14.70;13.70;;;;;;;;;;5049230;28;20246;-58
2021/06/17 01:06:48;;;;;;;15.00;13.90;;;;;;;;;;5040630;28;20183;-58
2021/06/17 01:09:19;;;;;;;14.67;13.60;;;;;;;;;;5049031;28;20200;-58
2021/06/17 01:11:56;;;;;;;15.13;13.93;;;;;;;;;;5063011;28;20224;-57
2021/06/17 01:14:23;;;;;;;14.00;12.97;;;;;;;;;;5048451;28;20674;-58
2021/06/17 01:16:51;;;;;;;15.63;14.40;;;;;;;;;;5044319;28;20626;-57
2021/06/17 01:19:31;;;;;;;15.00;14.00;;;;;;;;;;5041928;28;21476;-58
2021/06/17 01:22:14;;;;;;;15.47;14.37;;;;;;;;;;5040792;28;21012;-58
2021/06/17 01:24:42;;;;;;;16.20;15.00;;;;;;;;;;5058853;28;20986;-58
2021/06/17 01:27:07;;;;;;;16.77;15.33;;;;;;;;;;5045168;28;20605;-58
2021/06/17 01:29:35;;;;;;;15.50;14.30;;;;;;;;;;5055042;28;20609;-57
2021/06/17 01:32:00;;;;;;;16.40;15.00;;;;;;;;;;5059924;28;20182;-57
2021/06/17 01:34:25;;;;;;;16.80;15.20;;;;;;;;;;5055273;28;20659;-57
2021/06/17 01:36:59;;;;;;;14.97;13.97;;;;;;;;;;5040118;28;20289;-57
2021/06/17 01:39:25;;;;;;;16.83;15.63;;;;;;;;;;5038116;28;20176;-58
2021/06/17 01:41:52;;;;;;;15.37;14.37;;;;;;;;;;5056451;28;20597;-58
2021/06/17 01:44:19;;;;;;;15.80;14.47;;;;;;;;;;5056933;28;21538;-58
2021/06/17 01:46:44;;;;;;;16.30;15.07;;;;;;;;;;5050290;28;20601;-59
2021/06/17 01:49:10;;;;;;;16.13;14.93;;;;;;;;;;5041586;28;20606;-58
2021/06/17 01:51:36;;;;;;;14.80;13.80;;;;;;;;;;5045450;28;20180;-57
2021/06/17 01:54:02;;;;;;;15.50;14.33;;;;;;;;;;5042794;28;20617;-58
2021/06/17 01:56:27;;;;;;;15.03;14.03;;;;;;;;;;5044013;28;20715;-57
2021/06/17 01:58:54;;;;;;;16.33;14.87;;;;;;;;;;5059689;28;20177;-57
2021/06/17 02:01:20;;;;;;;15.73;14.50;;;;;;;;;;5045179;28;20172;-57
2021/06/17 02:03:45;;;;;;;15.10;14.00;;;;;;;;;;5043170;28;20598;-58
2021/06/17 02:06:14;;;;;;;15.43;14.13;;;;;;;;;;5041690;28;21032;-57
2021/06/17 02:08:40;;;;;;;16.80;15.60;;;;;;;;;;5040123;28;20183;-57
2021/06/17 02:11:05;;;;;;;15.33;14.10;;;;;;;;;;5044479;28;20693;-58
2021/06/17 02:13:31;;;;;;;14.33;13.33;;;;;;;;;;5039955;28;20221;-58
2021/06/17 02:15:57;;;;;;;16.03;14.73;;;;;;;;;;5048613;28;20183;-58
2021/06/17 02:18:25;;;;;;;14.03;13.10;;;;;;;;;;5041900;28;20645;-57
2021/06/17 02:20:50;;;;;;;13.93;12.93;;;;;;;;;;5047842;28;20589;-62
2021/06/17 02:23:16;;;;;;;15.87;14.70;;;;;;;;;;5045413;28;20577;-58
2021/06/17 02:25:42;;;;;;;14.60;13.60;;;;;;;;;;5047448;28;20183;-57
2021/06/17 02:28:14;;;;;;;15.20;14.00;;;;;;;;;;5045781;28;21188;-57
2021/06/17 02:30:40;;;;;;;15.60;14.50;;;;;;;;;;5061903;28;20609;-56
2021/06/17 02:33:06;;;;;;;15.93;14.80;;;;;;;;;;5051848;28;20614;-57
2021/06/17 02:35:34;;;;;;;15.33;14.13;;;;;;;;;;5050469;28;20715;-57
2021/06/17 02:38:01;;;;;;;15.10;13.90;;;;;;;;;;5046517;28;20625;-57
2021/06/17 02:40:27;;;;;;;15.93;14.77;;;;;;;;;;5043846;28;20642;-57
2021/06/17 02:42:54;;;;;;;15.30;14.10;;;;;;;;;;5047235;28;20591;-57
2021/06/17 02:45:19;;;;;;;16.50;15.20;;;;;;;;;;5062039;28;20810;-57
2021/06/17 02:47:45;;;;;;;15.40;14.30;;;;;;;;;;5046386;28;20588;-57
2021/06/17 02:50:10;;;;;;;14.80;13.70;;;;;;;;;;5045344;28;20258;-57
2021/06/17 02:52:40;;;;;;;14.73;13.63;;;;;;;;;;5040908;28;20203;-57
2021/06/17 02:55:05;;;;;;;16.10;14.80;;;;;;;;;;5048828;28;20219;-57
2021/06/17 02:57:50;;;;;;;15.77;14.33;;;;;;;;;;5064009;28;20652;-58
2021/06/17 03:00:20;;;;;;;15.20;14.10;;;;;;;;;;5040414;28;20253;-58
2021/06/17 03:02:52;;;;;;;15.10;14.10;;;;;;;;;;5050938;28;20598;-58
2021/06/17 03:05:19;;;;;;;14.93;13.83;;;;;;;;;;5059346;28;20612;-57
2021/06/17 03:07:46;;;;;;;14.60;13.60;;;;;;;;;;5056496;28;20608;-58
2021/06/17 03:10:12;;;;;;;14.37;13.37;;;;;;;;;;5046847;28;20607;-58
2021/06/17 03:12:38;;;;;;;14.77;13.73;;;;;;;;;;5044000;28;20680;-58
2021/06/17 03:15:05;;;;;;;14.93;13.73;;;;;;;;;;5052662;28;20245;-57
2021/06/17 03:17:31;;;;;;;15.93;14.53;;;;;;;;;;5040359;28;20641;-57
2021/06/17 03:19:59;;;;;;;15.63;14.33;;;;;;;;;;5046255;28;20946;-57
2021/06/17 03:22:25;;;;;;;16.40;15.10;;;;;;;;;;5043768;28;20594;-58
2021/06/17 03:24:52;;;;;;;16.27;14.70;;;;;;;;;;5044734;28;20602;-58
2021/06/17 03:27:18;;;;;;;15.90;14.80;;;;;;;;;;5048216;28;21163;-58
2021/06/17 03:29:46;;;;;;;17.10;14.97;;;;;;;;;;5041660;28;20619;-58
2021/06/17 03:32:12;;;;;;;14.47;13.30;;;;;;;;;;5049520;28;20198;-57
2021/06/17 03:34:38;;;;;;;15.93;14.60;;;;;;;;;;5061981;28;20572;-58
2021/06/17 03:37:04;;;;;;;15.53;14.37;;;;;;;;;;5062738;28;20735;-58
2021/06/17 03:39:30;;;;;;;15.97;14.77;;;;;;;;;;5050570;28;20693;-58
2021/06/17 03:41:56;;;;;;;14.47;13.47;;;;;;;;;;5051887;28;21207;-58
2021/06/17 03:44:23;;;;;;;14.13;12.93;;;;;;;;;;5049985;28;20194;-59
2021/06/17 03:46:49;;;;;;;14.43;13.43;;;;;;;;;;5042449;28;20882;-58
2021/06/17 03:49:14;;;;;;;15.07;13.90;;;;;;;;;;5040207;28;20600;-58
2021/06/17 03:51:40;;;;;;;14.27;13.17;;;;;;;;;;5040184;28;20582;-58
2021/06/17 03:54:06;;;;;;;13.63;12.63;;;;;;;;;;5049646;28;20195;-58
2021/06/17 03:56:31;;;;;;;15.17;13.67;;;;;;;;;;5037942;28;20287;-58
2021/06/17 03:58:56;;;;;;;15.00;13.70;;;;;;;;;;5040850;28;20668;-58
2021/06/17 04:01:21;;;;;;;14.77;13.57;;;;;;;;;;5039351;28;20654;-58
2021/06/17 04:03:47;;;;;;;13.43;12.40;;;;;;;;;;5049529;28;20182;-59
2021/06/17 04:06:15;;;;;;;12.60;11.73;;;;;;;;;;5055970;28;20230;-59
2021/06/17 04:08:59;;;;;;;13.70;12.70;;;;;;;;;;5048326;28;20194;-58
2021/06/17 04:11:24;;;;;;;12.20;11.30;;;;;;;;;;5041327;28;20586;-58
2021/06/17 04:13:50;;;;;;;13.13;12.23;;;;;;;;;;5040363;28;20614;-58
2021/06/17 04:16:18;;;;;;;12.40;11.50;;;;;;;;;;5050896;28;20206;-58
2021/06/17 04:18:44;;;;;;;12.60;11.70;;;;;;;;;;5049492;28;20732;-58
2021/06/17 04:21:10;;;;;;;12.53;11.53;;;;;;;;;;5059104;28;20659;-58
2021/06/17 04:23:36;;;;;;;13.03;12.03;;;;;;;;;;5050744;28;20186;-58
2021/06/17 04:26:01;;;;;;;12.83;11.77;;;;;;;;;;5056972;28;20565;-59
2021/06/17 04:28:27;;;;;;;13.07;12.10;;;;;;;;;;5053645;28;20547;-58
2021/06/17 04:30:53;;;;;;;13.70;12.40;;;;;;;;;;5057579;28;20261;-59
2021/06/17 04:33:19;;;;;;;11.70;10.80;;;;;;;;;;5056443;28;20180;-59
2021/06/17 04:35:45;;;;;;;12.83;11.83;;;;;;;;;;5060076;28;20596;-59
2021/06/17 04:38:18;;;;;;;11.20;10.37;;;;;;;;;;5070637;28;20628;-59
2021/06/17 04:40:45;;;;;;;11.83;10.93;;;;;;;;;;5065377;28;20191;-58
2021/06/17 04:43:11;;;;;;;11.67;10.77;;;;;;;;;;5064896;28;21084;-58
2021/06/17 04:45:37;;;;;;;12.90;11.80;;;;;;;;;;5071120;28;20611;-58
2021/06/17 04:48:08;;;;;;;11.13;10.17;;;;;;;;;;5059199;28;20179;-58
2021/06/17 04:50:33;;;;;;;13.07;11.10;;;;;;;;;;5067271;28;21244;-59
2021/06/17 04:52:59;;;;;;;11.60;10.60;;;;;;;;;;5075720;28;20605;-59
2021/06/17 04:55:24;;;;;;;11.85;11.05;;;;;;;;;;5061502;28;20540;-59
2021/06/17 04:57:49;;;;;;;11.60;10.70;;;;;;;;;;5048155;28;20218;-59
2021/06/17 05:00:15;;;;;;;11.73;10.87;;;;;;;;;;5065119;28;20347;-59
2021/06/17 05:02:40;;;;;;;12.10;11.10;;;;;;;;;;5063247;28;20556;-59
2021/06/17 05:05:08;;;;;;;12.07;11.17;;;;;;;;;;5068074;28;20299;-60
2021/06/17 05:12:42;;;;;;;12.10;11.30;;;;;;;;;;5072440;28;20193;-59
2021/06/17 05:15:07;;;;;;;11.80;10.90;;;;;;;;;;5075718;28;20591;-59
2021/06/17 05:17:33;;;;;;;11.80;11.00;;;;;;;;;;5061896;28;20312;-59
2021/06/17 05:19:58;;;;;;;12.20;11.10;;;;;;;;;;5051085;28;20246;-59
2021/06/17 05:22:23;;;;;;;11.30;10.40;;;;;;;;;;5067282;28;20578;-59
2021/06/17 05:24:48;;;;;;;11.27;10.37;;;;;;;;;;5061517;28;20170;-59
2021/06/17 05:27:14;;;;;;;11.48;10.68;;;;;;;;;;5058364;28;20179;-59
2021/06/17 05:29:39;;;;;;;12.17;11.37;;;;;;;;;;5056374;28;20187;-59
2021/06/17 05:32:04;;;;;;;10.33;9.63;;;;;;;;;;5057494;28;20175;-58
2021/06/17 05:34:29;;;;;;;11.80;10.80;;;;;;;;;;5063537;28;20190;-57
2021/06/17 05:36:54;;;;;;;10.10;9.40;;;;;;;;;;5063744;28;20199;-58
2021/06/17 05:39:20;;;;;;;10.83;10.13;;;;;;;;;;5058061;28;20350;-59
2021/06/17 05:41:45;;;;;;;10.20;9.50;;;;;;;;;;5056635;28;20182;-59
2021/06/17 05:44:10;;;;;;;11.50;10.60;;;;;;;;;;5057356;28;20609;-59
2021/06/17 05:46:40;;;;;;;11.75;10.93;;;;;;;;;;5072024;28;20512;-58
2021/06/17 05:49:06;;;;;;;11.70;10.93;;;;;;;;;;5072682;28;20548;-60
2021/06/17 05:51:31;;;;;;;12.47;11.13;;;;;;;;;;5067283;28;20582;-58
2021/06/17 05:53:56;;;;;;;11.40;10.60;;;;;;;;;;5067028;28;20337;-58
2021/06/17 05:56:21;;;;;;;10.33;9.63;;;;;;;;;;5066585;28;20231;-59
2021/06/17 05:58:47;;;;;;;11.27;10.40;;;;;;;;;;5066811;28;20639;-59
2021/06/17 06:01:12;;;;;;;10.67;9.87;;;;;;;;;;5054488;28;20302;-59
2021/06/17 06:03:37;;;;;;;10.60;9.90;;;;;;;;;;5066692;28;20244;-59
2021/06/17 06:06:03;;;;;;;11.90;10.90;;;;;;;;;;5063895;28;20179;-60
2021/06/17 06:08:28;;;;;;;11.30;10.40;;;;;;;;;;5057781;28;20179;-58
2021/06/17 06:10:53;;;;;;;11.10;10.27;;;;;;;;;;5061029;28;20221;-59
2021/06/17 06:13:18;;;;;;;10.73;9.93;;;;;;;;;;5054780;28;20256;-59
2021/06/17 06:15:43;;;;;;;11.10;10.30;;;;;;;;;;5077941;28;20171;-58
2021/06/17 06:18:10;;;;;;;11.03;10.13;;;;;;;;;;5078131;28;20198;-58
2021/06/17 06:20:36;;;;;;;12.33;11.53;;;;;;;;;;5077741;28;20387;-59
2021/06/17 06:23:01;;;;;;;11.00;10.03;;;;;;;;;;5064672;28;20595;-59
2021/06/17 06:25:27;;;;;;;11.53;10.60;;;;;;;;;;5077038;28;21137;-59
2021/06/17 06:27:52;;;;;;;10.90;9.90;;;;;;;;;;5066351;28;20274;-59
2021/06/17 06:30:18;;;;;;;11.50;10.70;;;;;;;;;;5066779;28;20175;-59
2021/06/17 06:32:43;;;;;;;10.50;9.80;;;;;;;;;;5064805;28;20183;-59
2021/06/17 06:35:09;;;;;;;10.77;9.97;;;;;;;;;;5066615;28;20183;-59
2021/06/17 06:37:34;;;;;;;11.03;10.03;;;;;;;;;;5071194;28;20206;-59
2021/06/17 06:40:00;;;;;;;11.33;10.53;;;;;;;;;;5079996;28;21000;-60
2021/06/17 06:42:25;;;;;;;11.90;10.97;;;;;;;;;;5083331;28;20232;-59
2021/06/17 06:44:50;;;;;;;10.80;9.90;;;;;;;;;;5075493;28;20262;-59
2021/06/17 06:47:15;;;;;;;11.43;10.50;;;;;;;;;;5060923;28;20167;-57
2021/06/17 06:49:40;;;;;;;10.87;10.07;;;;;;;;;;5060757;28;20981;-58
2021/06/17 06:52:06;;;;;;;12.43;11.37;;;;;;;;;;5064780;28;20565;-58
2021/06/17 06:54:31;;;;;;;11.30;10.40;;;;;;;;;;5046337;28;20219;-59
2021/06/17 06:56:56;;;;;;;11.90;11.10;;;;;;;;;;5042165;28;20250;-58
2021/06/17 06:59:21;;;;;;;12.10;11.30;;;;;;;;;;5040608;28;20646;-58
2021/06/17 07:01:46;;;;;;;11.50;10.63;;;;;;;;;;5040215;28;20164;-58
2021/06/17 07:04:11;;;;;;;12.17;11.17;;;;;;;;;;5053425;28;20388;-58
2021/06/17 07:06:38;;;;;;;12.17;11.17;;;;;;;;;;5065870;28;20543;-59
2021/06/17 07:09:04;;;;;;;12.83;11.77;;;;;;;;;;5064633;28;20696;-59
2021/06/17 07:11:29;;;;;;;12.03;11.10;;;;;;;;;;5060177;28;20688;-61
2021/06/17 07:13:54;;;;;;;12.53;11.63;;;;;;;;;;5060022;28;20186;-59
2021/06/17 07:16:19;;;;;;;12.10;11.20;;;;;;;;;;5060348;28;20547;-59
2021/06/17 07:18:44;;;;;;;13.18;12.15;;;;;;;;;;5066013;28;20545;-57
2021/06/17 07:21:11;;;;;;;11.83;10.97;;;;;;;;;;5063701;28;20163;-58
2021/06/17 07:23:36;;;;;;;12.63;11.57;;;;;;;;;;5062364;28;20175;-58
2021/06/17 07:26:02;;;;;;;13.23;12.10;;;;;;;;;;5059721;28;20605;-59
2021/06/17 07:28:27;;;;;;;12.40;11.60;;;;;;;;;;5059816;28;20187;-58
2021/06/17 07:30:53;;;;;;;12.00;11.00;;;;;;;;;;5064029;28;20178;-58
2021/06/17 07:33:18;;;;;;;12.53;11.43;;;;;;;;;;5063594;28;20174;-58
2021/06/17 07:35:43;;;;;;;12.77;11.97;;;;;;;;;;5061464;28;20175;-59
2021/06/17 07:38:08;;;;;;;11.57;10.87;;;;;;;;;;5060417;28;20234;-58
2021/06/17 07:40:34;;;;;;;12.82;11.63;;;;;;;;;;5059978;28;20228;-58
2021/06/17 07:42:59;;;;;;;12.33;11.50;;;;;;;;;;5061501;28;20213;-59
2021/06/17 07:45:29;;;;;;;11.10;10.40;;;;;;;;;;5061261;28;20166;-58
2021/06/17 07:47:54;;;;;;;12.07;10.80;;;;;;;;;;5065268;28;20652;-59
2021/06/17 07:50:19;;;;;;;11.10;10.20;;;;;;;;;;5059711;28;20567;-58
2021/06/17 07:52:45;;;;;;;10.32;9.52;;;;;;;;;;5059644;28;20664;-58
2021/06/17 07:55:10;;;;;;;11.60;10.50;;;;;;;;;;5059136;28;20229;-59
2021/06/17 07:57:35;;;;;;;10.80;9.67;;;;;;;;;;5059693;28;20206;-58
2021/06/17 08:00:00;;;;;;;9.60;8.90;;;;;;;;;;5064743;28;20194;-59
2021/06/17 08:02:26;;;;;;;10.80;10.00;;;;;;;;;;5061222;28;20167;-58
2021/06/17 08:04:51;;;;;;;10.57;9.70;;;;;;;;;;5061453;28;20171;-59
2021/06/17 08:07:17;;;;;;;10.37;9.20;;;;;;;;;;5047383;28;20213;-59
2021/06/17 08:09:42;;;;;;;10.57;9.77;;;;;;;;;;5040904;28;20176;-57
2021/06/17 08:12:07;;;;;;;11.53;10.57;;;;;;;;;;5042892;28;20172;-58
2021/06/17 08:14:32;;;;;;;11.20;10.27;;;;;;;;;;5041635;28;20263;-57
2021/06/17 08:16:58;;;;;;;14.00;10.50;;;;;;;;;;5044162;28;20203;-59
2021/06/17 08:19:28;;;;;;;11.80;11.00;;;;;;;;;;5058973;28;20172;-58
2021/06/17 08:21:54;;;;;;;10.87;10.07;;;;;;;;;;5059041;28;20159;-58
2021/06/17 08:24:19;;;;;;;10.57;9.77;;;;;;;;;;5062310;28;21151;-58
2021/06/17 08:26:45;;;;;;;11.20;10.30;;;;;;;;;;5064201;28;20538;-58
2021/06/17 08:29:10;;;;;;;9.80;9.20;;;;;;;;;;5057215;28;20179;-58
2021/06/17 08:31:38;;;;;;;11.57;10.67;;;;;;;;;;5058988;28;20182;-58
2021/06/17 08:34:03;;;;;;;11.00;10.30;;;;;;;;;;5042548;28;20184;-58
2021/06/17 08:36:28;;;;;;;12.07;10.97;;;;;;;;;;5044095;28;20636;-57
2021/06/17 08:38:53;;;;;;;11.53;10.53;;;;;;;;;;5042589;28;20192;-57
2021/06/17 08:41:18;;;;;;;10.88;9.50;;;;;;;;;;5038500;28;20608;-56
2021/06/17 08:43:44;;;;;;;10.32;9.63;;;;;;;;;;5048926;28;20262;-57
2021/06/17 08:46:09;;;;;;;10.33;9.50;;;;;;;;;;5060649;28;20171;-57
2021/06/17 08:48:35;;;;;;;10.35;9.57;;;;;;;;;;5060171;28;20170;-57
2021/06/17 08:51:00;;;;;;;9.50;8.80;;;;;;;;;;5063413;28;20175;-57
2021/06/17 08:53:25;;;;;;;9.70;8.90;;;;;;;;;;5041780;28;20679;-58
2021/06/17 08:55:51;;;;;;;10.53;9.00;;;;;;;;;;5038126;28;20685;-58
2021/06/17 08:58:16;;;;;;;9.10;8.20;;;;;;;;;;5038216;28;20264;-58
2021/06/17 09:00:42;;;;;;;8.60;7.93;;;;;;;;;;5041475;28;20229;-58
2021/06/17 09:03:09;;;;;;;8.40;7.63;;;;;;;;;;5050869;28;20171;-58
2021/06/17 09:05:36;;;;;;;7.90;7.30;;;;;;;;;;5061502;28;20569;-58
2021/06/17 09:08:01;;;;;;;7.13;6.63;;;;;;;;;;5060410;28;20582;-58
2021/06/17 09:10:28;;;;;;;7.70;7.20;;;;;;;;;;5058305;28;20977;-58
2021/06/17 09:12:55;;;;;;;7.00;6.50;;;;;;;;;;5039297;28;20176;-58
2021/06/17 09:15:29;;;;;;;7.50;6.80;;;;;;;;;;5040984;28;20601;-59
2021/06/17 09:18:07;;;;;;;7.70;7.10;;;;;;;;;;5043957;28;20654;-58
2021/06/17 09:20:32;;;;;;;6.30;5.90;;;;;;;;;;5038281;28;20577;-58
2021/06/17 09:22:58;;;;;;;7.33;6.60;;;;;;;;;;5040066;28;20587;-58
2021/06/17 09:25:23;;;;;;;7.73;6.97;;;;;;;;;;5042215;28;20186;-58
2021/06/17 09:27:50;;;;;;;7.77;6.97;;;;;;;;;;5048329;28;20241;-58
2021/06/17 09:30:17;;;;;;;7.47;6.97;;;;;;;;;;5044364;28;20176;-58
2021/06/17 09:32:53;;;;;;;7.47;6.87;;;;;;;;;;5042255;28;20639;-58
2021/06/17 09:35:21;;;;;;;7.90;7.13;;;;;;;;;;5046107;28;20609;-58
2021/06/17 09:37:46;;;;;;;7.70;7.13;;;;;;;;;;5067558;28;20706;-58
2021/06/17 09:40:23;;;;;;;7.10;6.50;;;;;;;;;;5065993;28;21141;-59
2021/06/17 09:42:49;;;;;;;7.87;7.27;;;;;;;;;;5062622;28;20178;-58
2021/06/17 09:45:16;;;;;;;7.80;7.30;;;;;;;;;;5061923;28;20552;-57
2021/06/17 09:47:44;;;;;;;9.57;8.30;;;;;;;;;;5061635;28;20183;-58
2021/06/17 09:50:25;;;;;;;6.60;6.20;;;;;;;;;;5072841;28;20571;-58
2021/06/17 09:52:51;;;;;;;7.40;6.80;;;;;;;;;;5069868;28;20579;-57
2021/06/17 09:55:34;;;;;;;7.10;6.60;;;;;;;;;;5072066;28;20648;-58
2021/06/17 09:57:59;;;;;;;6.17;5.87;;;;;;;;;;5066734;28;20199;-57
2021/06/17 10:00:24;;;;;;;7.28;6.40;;;;;;;;;;5051277;28;20601;-58
2021/06/17 10:02:49;;;;;;;6.80;6.30;;;;;;;;;;5058658;28;20174;-58
2021/06/17 10:05:19;;;;;;;7.18;6.50;;;;;;;;;;5089535;28;20190;-58
2021/06/17 10:07:44;;;;;;;6.80;6.30;;;;;;;;;;5085489;28;20203;-58
2021/06/17 10:10:12;;;;;;;6.57;6.03;;;;;;;;;;5088693;28;21019;-58
2021/06/17 10:12:37;;;;;;;7.00;6.43;;;;;;;;;;5082065;28;20178;-58
2021/06/17 10:15:03;;;;;;;7.10;6.60;;;;;;;;;;5070767;28;20585;-62
2021/06/17 10:17:28;;;;;;;6.30;5.90;;;;;;;;;;5068420;28;20203;-58
2021/06/17 10:19:56;;;;;;;5.80;5.40;;;;;;;;;;5071287;28;20593;-57
2021/06/17 10:22:28;;;;;;;6.70;6.30;;;;;;;;;;5066114;28;20206;-58
2021/06/17 10:24:54;;;;;;;7.17;6.63;;;;;;;;;;5059337;28;20591;-58
2021/06/17 10:27:28;;;;;;;5.90;5.40;;;;;;;;;;5051331;28;20995;-58
2021/06/17 10:29:53;;;;;;;6.93;6.40;;;;;;;;;;5058676;28;20175;-60
2021/06/17 10:32:31;;;;;;;6.35;5.95;;;;;;;;;;5069767;28;20962;-58
2021/06/17 10:34:57;;;;;;;6.53;6.00;;;;;;;;;;5068789;28;20171;-59
2021/06/17 10:37:27;;;;;;;7.50;7.00;;;;;;;;;;5061562;28;20619;-59
2021/06/17 10:40:07;;;;;;;6.80;6.20;;;;;;;;;;5054310;28;20586;-59
2021/06/17 10:42:37;;;;;;;6.90;6.40;;;;;;;;;;5064371;28;21173;-59
2021/06/17 10:45:12;;;;;;;6.53;6.03;;;;;;;;;;5070443;28;20585;-59
2021/06/17 10:47:47;;;;;;;6.13;5.73;;;;;;;;;;5056961;28;20628;-60
2021/06/17 10:50:22;;;;;;;6.20;5.83;;;;;;;;;;5056907;28;21186;-58
2021/06/17 10:52:52;;;;;;;6.17;5.77;;;;;;;;;;5063940;28;20711;-58
2021/06/17 10:55:21;;;;;;;6.47;6.07;;;;;;;;;;5081910;28;20674;-58
2021/06/17 11:00:24;;;;;;;6.20;5.83;;;;;;;;;;5079777;28;21418;-59
2021/06/17 11:02:53;;;;;;;7.03;6.57;;;;;;;;;;5057543;28;20605;-59
2021/06/17 11:05:34;;;;;;;6.50;6.10;;;;;;;;;;5078697;28;20607;-59
2021/06/17 11:08:19;;;;;;;6.10;5.70;;;;;;;;;;5084665;28;20624;-58
2021/06/17 11:10:47;;;;;;;7.53;6.93;;;;;;;;;;5056552;28;21137;-59
2021/06/17 11:13:31;;;;;;;7.63;6.93;;;;;;;;;;5066590;28;21483;-59
2021/06/17 11:15:57;;;;;;;7.57;6.97;;;;;;;;;;5083456;28;21466;-59
2021/06/17 11:18:46;;;;;;;6.93;6.53;;;;;;;;;;5086851;28;20755;-60
2021/06/17 11:21:23;;;;;;;7.23;6.60;;;;;;;;;;5062342;28;20658;-58
2021/06/17 11:23:53;;;;;;;6.87;6.30;;;;;;;;;;5046172;28;20600;-59
2021/06/17 11:26:37;;;;;;;7.57;6.90;;;;;;;;;;5046372;28;20602;-59
2021/06/17 11:29:06;;;;;;;7.53;6.83;;;;;;;;;;5065506;28;20593;-59
2021/06/17 11:31:35;;;;;;;7.10;6.50;;;;;;;;;;5073500;28;20943;-59
2021/06/17 11:34:00;;;;;;;7.60;7.10;;;;;;;;;;5050409;28;20581;-59
2021/06/17 11:36:27;;;;;;;7.33;6.83;;;;;;;;;;5077136;28;20963;-59
2021/06/17 11:38:52;;;;;;;8.30;7.70;;;;;;;;;;5066449;28;20451;-59
2021/06/17 11:41:18;;;;;;;7.83;7.33;;;;;;;;;;5070461;28;20609;-59
2021/06/17 11:43:50;;;;;;;8.03;7.47;;;;;;;;;;5063427;28;20274;-59
2021/06/17 11:46:35;;;;;;;9.20;8.40;;;;;;;;;;5043471;28;20565;-59
2021/06/17 11:49:08;;;;;;;8.23;7.43;;;;;;;;;;5084476;28;20673;-59
2021/06/17 11:51:47;;;;;;;7.40;6.80;;;;;;;;;;5084536;28;20600;-58
2021/06/17 11:54:20;;;;;;;7.00;6.60;;;;;;;;;;5072456;28;20621;-59
2021/06/17 11:56:45;;;;;;;7.50;6.90;;;;;;;;;;5060800;28;20700;-59
2021/06/17 11:59:20;;;;;;;7.97;7.37;;;;;;;;;;5069002;28;21183;-60
2021/06/17 12:02:03;;;;;;;6.83;6.33;;;;;;;;;;5078315;28;20712;-59
2021/06/17 12:04:56;;;;;;;7.80;7.10;;;;;;;;;;5063097;28;20936;-59
2021/06/17 12:07:26;;;;;;;6.83;6.30;;;;;;;;;;5040657;28;21501;-59
2021/06/17 12:09:52;;;;;;;7.90;7.40;;;;;;;;;;5040901;28;21163;-59
2021/06/17 12:12:24;;;;;;;7.00;6.60;;;;;;;;;;5038865;28;20567;-59
2021/06/17 12:14:55;;;;;;;7.10;6.50;;;;;;;;;;5039036;28;20286;-58
2021/06/17 12:17:56;;;;;;;8.10;6.20;;;;;;;;;;5056951;28;20682;-59
2021/06/17 12:20:26;;;;;;;7.03;6.57;;;;;;;;;;5024911;28;20635;-59
2021/06/17 12:22:57;;;;;;;6.40;5.90;;;;;;;;;;5035929;28;20581;-58
2021/06/17 12:25:26;;;;;;;6.03;5.53;;;;;;;;;;5060454;28;20563;-59
2021/06/17 12:27:52;;;;;;;5.97;5.57;;;;;;;;;;5062315;28;20589;-58
2021/06/17 12:30:22;;;;;;;6.00;5.60;;;;;;;;;;5063169;28;20651;-59
2021/06/17 12:32:47;;;;;;;5.87;5.50;;;;;;;;;;5085955;28;20237;-59
2021/06/17 12:35:13;;;;;;;5.50;5.10;;;;;;;;;;5071858;28;20617;-59
2021/06/17 12:37:52;;;;;;;5.63;5.17;;;;;;;;;;5061372;28;20208;-59
2021/06/17 12:40:30;;;;;;;6.17;5.67;;;;;;;;;;5074594;28;20174;-61
2021/06/17 12:43:01;;;;;;;5.50;5.00;;;;;;;;;;5065653;28;20577;-63
2021/06/17 12:45:26;;;;;;;5.20;4.80;;;;;;;;;;5070167;28;20579;-62
2021/06/17 12:47:52;;;;;;;6.13;5.68;;;;;;;;;;5067933;28;20593;-63
2021/06/17 12:53:00;;;;;;;5.50;5.00;;;;;;;;;;5045552;28;20290;-63
2021/06/17 12:55:34;;;;;;;5.05;4.55;;;;;;;;;;5069314;28;20871;-58
2021/06/17 12:58:00;;;;;;;4.33;3.93;;;;;;;;;;5065091;28;20203;-58
2021/06/17 13:00:25;;;;;;;4.83;4.43;;;;;;;;;;5042633;28;21155;-56
2021/06/17 13:02:52;;;;;;;4.25;3.95;;;;;;;;;;5059340;28;20821;-57
2021/06/17 13:05:19;;;;;;;6.40;5.00;;;;;;;;;;5068183;28;20167;-56
2021/06/17 13:08:03;;;;;;;4.30;3.90;;;;;;;;;;5068676;28;20629;-58
2021/06/17 13:10:29;;;;;;;4.67;4.30;;;;;;;;;;5065574;28;20632;-57
2021/06/17 13:13:12;;;;;;;4.03;3.83;;;;;;;;;;5069125;28;21505;-59
2021/06/17 13:15:37;;;;;;;4.30;4.00;;;;;;;;;;5071088;28;20621;-59
2021/06/17 13:18:07;;;;;;;4.30;4.00;;;;;;;;;;5063419;28;20730;-57
2021/06/17 13:20:36;;;;;;;4.73;4.03;;;;;;;;;;5060261;28;20174;-57
2021/06/17 13:23:04;;;;;;;3.50;3.30;;;;;;;;;;5082223;28;20549;-58
2021/06/17 13:25:35;;;;;;;4.43;4.03;;;;;;;;;;5084140;28;20581;-58
2021/06/17 13:28:02;;;;;;;3.57;3.37;;;;;;;;;;5084638;28;20611;-57
2021/06/17 13:30:31;;;;;;;3.53;3.33;;;;;;;;;;5078758;28;20969;-57
2021/06/17 13:32:56;;;;;;;4.60;4.20;;;;;;;;;;5054528;28;21079;-56
2021/06/17 13:35:22;;;;;;;4.90;4.60;;;;;;;;;;5069566;28;20608;-57
2021/06/17 13:37:47;;;;;;;3.80;3.60;;;;;;;;;;5082855;28;20686;-56
2021/06/17 13:40:12;;;;;;;3.97;3.67;;;;;;;;;;5081252;28;20175;-57
2021/06/17 13:42:37;;;;;;;4.70;4.07;;;;;;;;;;5063421;28;20180;-56
2021/06/17 13:45:03;;;;;;;4.63;4.33;;;;;;;;;;5050265;28;20176;-56
2021/06/17 13:47:28;;;;;;;6.00;4.50;;;;;;;;;;5070955;28;20168;-56
2021/06/17 13:49:53;;;;;;;4.77;4.47;;;;;;;;;;5067510;28;20194;-56
2021/06/17 13:52:18;;;;;;;4.70;4.40;;;;;;;;;;5072512;28;20737;-57
2021/06/17 13:54:44;;;;;;;5.13;4.73;;;;;;;;;;5055142;28;20244;-56
2021/06/17 13:57:13;;;;;;;5.13;3.87;;;;;;;;;;5066168;28;20307;-58
2021/06/17 13:59:39;;;;;;;4.20;3.90;;;;;;;;;;5066583;28;20232;-58
2021/06/17 14:02:08;;;;;;;4.97;4.67;;;;;;;;;;5059970;28;20591;-57
2021/06/17 14:04:34;;;;;;;4.70;3.97;;;;;;;;;;5061887;28;21021;-57
2021/06/17 14:06:59;;;;;;;4.73;4.10;;;;;;;;;;5071427;28;20617;-57
2021/06/17 14:09:24;;;;;;;6.28;4.20;;;;;;;;;;5064156;28;20207;-56
2021/06/17 14:11:49;;;;;;;4.70;4.40;;;;;;;;;;5052884;28;20249;-57
2021/06/17 14:14:14;;;;;;;4.00;3.80;;;;;;;;;;5052275;28;20224;-58
2021/06/17 14:16:39;;;;;;;4.05;3.75;;;;;;;;;;5048587;28;20196;-58
2021/06/17 14:19:05;;;;;;;4.82;4.53;;;;;;;;;;5051613;28;20265;-57
2021/06/17 14:21:30;;;;;;;4.03;3.80;;;;;;;;;;5062234;28;20544;-57
2021/06/17 14:23:56;;;;;;;4.73;4.43;;;;;;;;;;5052778;28;21986;-57
2021/06/17 14:26:21;;;;;;;4.80;4.50;;;;;;;;;;5064144;28;20179;-57
2021/06/17 14:28:46;;;;;;;5.72;4.15;;;;;;;;;;5054832;28;20176;-58
2021/06/17 14:31:11;;;;;;;4.83;4.53;;;;;;;;;;5058255;28;20645;-57
2021/06/17 14:33:37;;;;;;;4.93;4.53;;;;;;;;;;5060817;28;20283;-57
2021/06/17 14:36:02;;;;;;;4.90;4.50;;;;;;;;;;5062575;28;20181;-57
2021/06/17 14:38:27;;;;;;;4.80;4.40;;;;;;;;;;5070248;28;20207;-57
2021/06/17 14:40:52;;;;;;;4.83;4.53;;;;;;;;;;5071065;28;20178;-57